sensor_id;sensor_type;location;lat;lon;timestamp;temperature;humidity
53653;DHT22;39553;52.954;5.932;2023-04-30T00:01:13;8.10;99.90
53653;DHT22;39553;52.954;5.932;2023-04-30T00:03:39;8.00;99.90
53653;DHT22;39553;52.954;5.932;2023-04-30T00:06:05;7.90;99.90
53653;DHT22;39553;52.954;5.932;2023-04-30T00:08:30;7.80;99.90
53653;DHT22;39553;52.954;5.932;2023-04-30T00:10:56;7.80;99.90
53653;DHT22;39553;52.954;5.932;2023-04-30T00:13:22;7.70;99.90
53653;DHT22;39553;52.954;5.932;2023-04-30T00:15:48;7.60;99.90
53653;DHT22;39553;52.954;5.932;2023-04-30T00:18:14;7.70;99.90
53653;DHT22;39553;52.954;5.932;2023-04-30T00:20:40;7.50;99.90
53653;DHT22;39553;52.954;5.932;2023-04-30T00:23:06;7.40;99.90
53653;DHT22;39553;52.954;5.932;2023-04-30T00:25:32;7.40;99.90
53653;DHT22;39553;52.954;5.932;2023-04-30T00:27:58;7.30;99.90
53653;DHT22;39553;52.954;5.932;2023-04-30T00:30:24;7.90;99.90
53653;DHT22;39553;52.954;5.932;2023-04-30T00:32:49;7.20;99.90
53653;DHT22;39553;52.954;5.932;2023-04-30T00:35:15;7.20;99.90
53653;DHT22;39553;52.954;5.932;2023-04-30T00:37:41;7.20;99.90
53653;DHT22;39553;52.954;5.932;2023-04-30T00:40:07;7.20;99.90
53653;DHT22;39553;52.954;5.932;2023-04-30T00:42:33;7.10;99.90
53653;DHT22;39553;52.954;5.932;2023-04-30T00:44:58;7.10;99.90
53653;DHT22;39553;52.954;5.932;2023-04-30T00:47:24;7.00;99.90
53653;DHT22;39553;52.954;5.932;2023-04-30T00:49:50;6.90;99.90
53653;DHT22;39553;52.954;5.932;2023-04-30T00:52:16;6.90;99.90
53653;DHT22;39553;52.954;5.932;2023-04-30T00:54:42;6.90;99.90
53653;DHT22;39553;52.954;5.932;2023-04-30T00:57:11;6.80;99.90
53653;DHT22;39553;52.954;5.932;2023-04-30T00:59:38;6.80;99.90
53653;DHT22;39553;52.954;5.932;2023-04-30T01:02:07;5.90;99.90
53653;DHT22;39553;52.954;5.932;2023-04-30T01:04:32;6.70;99.90
53653;DHT22;39553;52.954;5.932;2023-04-30T01:06:59;6.70;99.90
53653;DHT22;39553;52.954;5.932;2023-04-30T01:09:27;6.60;99.90
53653;DHT22;39553;52.954;5.932;2023-04-30T01:12:20;6.60;99.90
53653;DHT22;39553;52.954;5.932;2023-04-30T01:18:07;6.50;99.90
53653;DHT22;39553;52.954;5.932;2023-04-30T01:20:39;6.50;99.90
53653;DHT22;39553;52.954;5.932;2023-04-30T01:26:14;6.50;99.90
53653;DHT22;39553;52.954;5.932;2023-04-30T01:28:45;6.50;99.90
53653;DHT22;39553;52.954;5.932;2023-04-30T01:31:16;6.40;99.90
53653;DHT22;39553;52.954;5.932;2023-04-30T01:33:42;6.40;99.90
53653;DHT22;39553;52.954;5.932;2023-04-30T01:42:33;6.30;99.90
53653;DHT22;39553;52.954;5.932;2023-04-30T01:45:31;6.30;99.90
53653;DHT22;39553;52.954;5.932;2023-04-30T01:48:27;6.20;99.90
53653;DHT22;39553;52.954;5.932;2023-04-30T01:51:21;6.20;99.90
53653;DHT22;39553;52.954;5.932;2023-04-30T01:53:49;6.20;99.90
53653;DHT22;39553;52.954;5.932;2023-04-30T01:56:23;6.30;99.90
53653;DHT22;39553;52.954;5.932;2023-04-30T01:58:51;7.10;99.90
53653;DHT22;39553;52.954;5.932;2023-04-30T02:01:31;6.10;99.90
53653;DHT22;39553;52.954;5.932;2023-04-30T02:03:57;6.00;99.90
53653;DHT22;39553;52.954;5.932;2023-04-30T02:06:24;6.00;99.90
53653;DHT22;39553;52.954;5.932;2023-04-30T02:08:54;6.60;99.90
53653;DHT22;39553;52.954;5.932;2023-04-30T02:11:21;5.90;99.90
53653;DHT22;39553;52.954;5.932;2023-04-30T02:13:50;5.80;99.90
53653;DHT22;39553;52.954;5.932;2023-04-30T02:16:15;6.60;99.90
53653;DHT22;39553;52.954;5.932;2023-04-30T02:18:41;6.10;99.90
53653;DHT22;39553;52.954;5.932;2023-04-30T02:21:07;6.40;99.90
53653;DHT22;39553;52.954;5.932;2023-04-30T02:23:33;5.80;99.90
53653;DHT22;39553;52.954;5.932;2023-04-30T02:25:58;5.80;99.90
53653;DHT22;39553;52.954;5.932;2023-04-30T02:28:24;5.80;99.90
53653;DHT22;39553;52.954;5.932;2023-04-30T02:30:50;5.70;99.90
53653;DHT22;39553;52.954;5.932;2023-04-30T02:33:16;5.80;99.90
53653;DHT22;39553;52.954;5.932;2023-04-30T02:35:42;5.80;99.90
53653;DHT22;39553;52.954;5.932;2023-04-30T02:38:07;5.90;99.90
53653;DHT22;39553;52.954;5.932;2023-04-30T02:40:34;5.30;99.90
53653;DHT22;39553;52.954;5.932;2023-04-30T02:43:00;5.90;99.90
53653;DHT22;39553;52.954;5.932;2023-04-30T02:45:26;6.00;99.90
53653;DHT22;39553;52.954;5.932;2023-04-30T02:47:51;6.00;99.90
53653;DHT22;39553;52.954;5.932;2023-04-30T02:50:17;5.90;99.90
53653;DHT22;39553;52.954;5.932;2023-04-30T02:52:46;6.00;99.90
53653;DHT22;39553;52.954;5.932;2023-04-30T02:55:12;6.00;99.90
53653;DHT22;39553;52.954;5.932;2023-04-30T02:57:38;7.10;99.90
53653;DHT22;39553;52.954;5.932;2023-04-30T03:00:04;6.40;99.90
53653;DHT22;39553;52.954;5.932;2023-04-30T03:02:30;6.10;99.90
53653;DHT22;39553;52.954;5.932;2023-04-30T03:04:56;6.20;99.90
53653;DHT22;39553;52.954;5.932;2023-04-30T03:07:21;6.20;99.90
53653;DHT22;39553;52.954;5.932;2023-04-30T03:09:47;6.20;99.90
53653;DHT22;39553;52.954;5.932;2023-04-30T03:12:13;6.20;99.90
53653;DHT22;39553;52.954;5.932;2023-04-30T03:14:41;6.20;99.90
53653;DHT22;39553;52.954;5.932;2023-04-30T03:17:07;6.20;99.90
53653;DHT22;39553;52.954;5.932;2023-04-30T03:19:33;6.10;99.90
53653;DHT22;39553;52.954;5.932;2023-04-30T03:21:58;6.10;99.90
53653;DHT22;39553;52.954;5.932;2023-04-30T03:24:25;6.10;99.90
53653;DHT22;39553;52.954;5.932;2023-04-30T03:26:50;6.10;99.90
53653;DHT22;39553;52.954;5.932;2023-04-30T03:29:16;6.10;99.90
53653;DHT22;39553;52.954;5.932;2023-04-30T03:31:42;5.80;99.90
53653;DHT22;39553;52.954;5.932;2023-04-30T03:34:11;5.90;99.90
53653;DHT22;39553;52.954;5.932;2023-04-30T03:36:36;5.90;99.90
53653;DHT22;39553;52.954;5.932;2023-04-30T03:39:04;5.90;99.90
53653;DHT22;39553;52.954;5.932;2023-04-30T03:41:31;5.90;99.90
53653;DHT22;39553;52.954;5.932;2023-04-30T03:43:56;5.80;99.90
53653;DHT22;39553;52.954;5.932;2023-04-30T03:46:22;5.80;99.90
53653;DHT22;39553;52.954;5.932;2023-04-30T03:48:48;5.70;99.90
53653;DHT22;39553;52.954;5.932;2023-04-30T03:51:14;5.40;99.90
53653;DHT22;39553;52.954;5.932;2023-04-30T03:53:39;5.60;99.90
53653;DHT22;39553;52.954;5.932;2023-04-30T03:56:06;5.60;99.90
53653;DHT22;39553;52.954;5.932;2023-04-30T03:58:32;5.50;99.90
53653;DHT22;39553;52.954;5.932;2023-04-30T04:00:58;5.60;99.90
53653;DHT22;39553;52.954;5.932;2023-04-30T04:03:23;5.50;99.90
53653;DHT22;39553;52.954;5.932;2023-04-30T04:05:49;5.50;99.90
53653;DHT22;39553;52.954;5.932;2023-04-30T04:08:15;5.50;99.90
53653;DHT22;39553;52.954;5.932;2023-04-30T04:10:41;5.50;99.90
53653;DHT22;39553;52.954;5.932;2023-04-30T04:13:07;5.50;99.90
53653;DHT22;39553;52.954;5.932;2023-04-30T04:15:36;5.50;99.90
53653;DHT22;39553;52.954;5.932;2023-04-30T04:18:02;5.50;99.90
53653;DHT22;39553;52.954;5.932;2023-04-30T04:20:28;5.60;99.90
53653;DHT22;39553;52.954;5.932;2023-04-30T04:22:55;5.60;99.90
53653;DHT22;39553;52.954;5.932;2023-04-30T04:25:21;5.60;99.90
53653;DHT22;39553;52.954;5.932;2023-04-30T04:27:50;5.70;99.90
53653;DHT22;39553;52.954;5.932;2023-04-30T04:30:17;5.70;99.90
53653;DHT22;39553;52.954;5.932;2023-04-30T04:32:42;5.70;99.90
53653;DHT22;39553;52.954;5.932;2023-04-30T04:35:14;5.70;99.90
53653;DHT22;39553;52.954;5.932;2023-04-30T04:37:39;5.60;99.90
53653;DHT22;39553;52.954;5.932;2023-04-30T04:40:06;6.10;99.90
53653;DHT22;39553;52.954;5.932;2023-04-30T04:42:32;5.60;99.90
53653;DHT22;39553;52.954;5.932;2023-04-30T04:44:58;5.60;99.90
53653;DHT22;39553;52.954;5.932;2023-04-30T04:47:24;5.60;99.90
53653;DHT22;39553;52.954;5.932;2023-04-30T04:49:50;5.50;99.90
53653;DHT22;39553;52.954;5.932;2023-04-30T04:52:16;5.60;99.90
53653;DHT22;39553;52.954;5.932;2023-04-30T04:54:44;5.60;99.90
53653;DHT22;39553;52.954;5.932;2023-04-30T04:57:10;5.60;99.90
53653;DHT22;39553;52.954;5.932;2023-04-30T04:59:37;5.60;99.90
53653;DHT22;39553;52.954;5.932;2023-04-30T05:02:06;5.70;99.90
53653;DHT22;39553;52.954;5.932;2023-04-30T05:04:32;5.70;99.90
53653;DHT22;39553;52.954;5.932;2023-04-30T05:06:58;5.70;99.90
53653;DHT22;39553;52.954;5.932;2023-04-30T05:09:24;5.80;99.90
53653;DHT22;39553;52.954;5.932;2023-04-30T05:11:50;5.80;99.90
53653;DHT22;39553;52.954;5.932;2023-04-30T05:14:16;5.90;99.90
53653;DHT22;39553;52.954;5.932;2023-04-30T05:16:42;6.00;99.90
53653;DHT22;39553;52.954;5.932;2023-04-30T05:19:07;6.00;99.90
53653;DHT22;39553;52.954;5.932;2023-04-30T05:21:34;6.20;99.90
53653;DHT22;39553;52.954;5.932;2023-04-30T05:24:01;6.20;99.90
53653;DHT22;39553;52.954;5.932;2023-04-30T05:26:44;6.30;99.90
53653;DHT22;39553;52.954;5.932;2023-04-30T05:29:11;6.40;99.90
53653;DHT22;39553;52.954;5.932;2023-04-30T05:31:37;6.90;99.90
53653;DHT22;39553;52.954;5.932;2023-04-30T05:34:02;7.00;99.90
53653;DHT22;39553;52.954;5.932;2023-04-30T05:36:29;6.90;99.90
53653;DHT22;39553;52.954;5.932;2023-04-30T05:38:55;7.80;99.90
53653;DHT22;39553;52.954;5.932;2023-04-30T05:41:21;8.30;99.90
53653;DHT22;39553;52.954;5.932;2023-04-30T05:43:46;8.80;99.90
53653;DHT22;39553;52.954;5.932;2023-04-30T05:46:14;9.20;99.90
53653;DHT22;39553;52.954;5.932;2023-04-30T05:48:40;9.50;99.90
53653;DHT22;39553;52.954;5.932;2023-04-30T05:51:07;9.90;99.90
53653;DHT22;39553;52.954;5.932;2023-04-30T05:53:38;10.30;99.90
53653;DHT22;39553;52.954;5.932;2023-04-30T05:56:05;10.50;99.90
53653;DHT22;39553;52.954;5.932;2023-04-30T05:58:31;10.80;99.90
53653;DHT22;39553;52.954;5.932;2023-04-30T06:00:57;11.10;99.90
53653;DHT22;39553;52.954;5.932;2023-04-30T06:03:23;11.30;99.90
53653;DHT22;39553;52.954;5.932;2023-04-30T06:05:49;11.50;99.90
53653;DHT22;39553;52.954;5.932;2023-04-30T06:08:15;11.80;99.90
53653;DHT22;39553;52.954;5.932;2023-04-30T06:10:41;12.10;99.90
53653;DHT22;39553;52.954;5.932;2023-04-30T06:13:06;12.40;99.90
53653;DHT22;39553;52.954;5.932;2023-04-30T06:15:32;12.50;99.90
53653;DHT22;39553;52.954;5.932;2023-04-30T06:17:58;12.50;99.80
53653;DHT22;39553;52.954;5.932;2023-04-30T06:20:24;12.40;99.50
53653;DHT22;39553;52.954;5.932;2023-04-30T06:22:53;12.10;98.10
53653;DHT22;39553;52.954;5.932;2023-04-30T06:25:18;12.10;98.80
53653;DHT22;39553;52.954;5.932;2023-04-30T06:27:45;12.10;98.20
53653;DHT22;39553;52.954;5.932;2023-04-30T06:30:11;12.10;97.10
53653;DHT22;39553;52.954;5.932;2023-04-30T06:32:40;11.90;97.10
53653;DHT22;39553;52.954;5.932;2023-04-30T06:35:06;11.30;97.00
53653;DHT22;39553;52.954;5.932;2023-04-30T06:37:32;10.80;97.90
53653;DHT22;39553;52.954;5.932;2023-04-30T06:40:03;10.50;98.50
53653;DHT22;39553;52.954;5.932;2023-04-30T06:42:30;10.30;99.00
53653;DHT22;39553;52.954;5.932;2023-04-30T06:45:03;10.10;98.80
53653;DHT22;39553;52.954;5.932;2023-04-30T06:47:31;10.20;99.90
53653;DHT22;39553;52.954;5.932;2023-04-30T06:50:01;10.70;99.90
53653;DHT22;39553;52.954;5.932;2023-04-30T06:52:29;11.40;99.30
53653;DHT22;39553;52.954;5.932;2023-04-30T06:54:55;12.00;97.70
53653;DHT22;39553;52.954;5.932;2023-04-30T06:57:21;12.50;97.00
53653;DHT22;39553;52.954;5.932;2023-04-30T06:59:49;12.90;95.90
53653;DHT22;39553;52.954;5.932;2023-04-30T07:02:15;13.30;95.70
53653;DHT22;39553;52.954;5.932;2023-04-30T07:04:41;13.60;95.10
53653;DHT22;39553;52.954;5.932;2023-04-30T07:07:07;13.90;94.40
53653;DHT22;39553;52.954;5.932;2023-04-30T07:09:33;14.10;93.70
53653;DHT22;39553;52.954;5.932;2023-04-30T07:11:59;14.00;93.10
53653;DHT22;39553;52.954;5.932;2023-04-30T07:14:25;14.10;92.70
53653;DHT22;39553;52.954;5.932;2023-04-30T07:16:51;13.90;92.30
53653;DHT22;39553;52.954;5.932;2023-04-30T07:19:18;13.80;92.30
53653;DHT22;39553;52.954;5.932;2023-04-30T07:21:44;13.80;92.20
53653;DHT22;39553;52.954;5.932;2023-04-30T07:24:10;13.90;91.80
53653;DHT22;39553;52.954;5.932;2023-04-30T07:26:36;14.20;91.70
53653;DHT22;39553;52.954;5.932;2023-04-30T07:29:03;14.40;91.20
53653;DHT22;39553;52.954;5.932;2023-04-30T07:31:28;14.20;90.70
53653;DHT22;39553;52.954;5.932;2023-04-30T07:33:54;14.30;91.00
53653;DHT22;39553;52.954;5.932;2023-04-30T07:36:21;14.50;91.10
53653;DHT22;39553;52.954;5.932;2023-04-30T07:38:47;14.80;90.60
53653;DHT22;39553;52.954;5.932;2023-04-30T07:41:13;14.90;90.20
53653;DHT22;39553;52.954;5.932;2023-04-30T07:43:39;14.90;89.80
53653;DHT22;39553;52.954;5.932;2023-04-30T07:46:07;14.70;88.90
53653;DHT22;39553;52.954;5.932;2023-04-30T07:48:33;14.70;88.80
53653;DHT22;39553;52.954;5.932;2023-04-30T07:50:58;14.90;89.40
53653;DHT22;39553;52.954;5.932;2023-04-30T07:53:24;15.20;88.30
53653;DHT22;39553;52.954;5.932;2023-04-30T07:55:50;15.30;87.20
53653;DHT22;39553;52.954;5.932;2023-04-30T07:58:16;15.50;86.60
53653;DHT22;39553;52.954;5.932;2023-04-30T08:00:41;15.50;85.50
53653;DHT22;39553;52.954;5.932;2023-04-30T08:03:07;15.40;84.50
53653;DHT22;39553;52.954;5.932;2023-04-30T08:05:33;15.50;85.20
53653;DHT22;39553;52.954;5.932;2023-04-30T08:08:00;15.60;84.80
53653;DHT22;39553;52.954;5.932;2023-04-30T08:10:26;15.70;84.20
53653;DHT22;39553;52.954;5.932;2023-04-30T08:12:52;15.80;82.30
53653;DHT22;39553;52.954;5.932;2023-04-30T08:15:18;16.00;81.30
53653;DHT22;39553;52.954;5.932;2023-04-30T08:17:48;16.00;80.50
53653;DHT22;39553;52.954;5.932;2023-04-30T08:20:17;16.20;79.80
53653;DHT22;39553;52.954;5.932;2023-04-30T08:22:44;16.40;79.30
53653;DHT22;39553;52.954;5.932;2023-04-30T08:25:10;16.60;78.60
53653;DHT22;39553;52.954;5.932;2023-04-30T08:27:37;16.70;76.50
53653;DHT22;39553;52.954;5.932;2023-04-30T08:30:07;16.50;75.60
53653;DHT22;39553;52.954;5.932;2023-04-30T08:32:34;16.50;75.70
53653;DHT22;39553;52.954;5.932;2023-04-30T08:35:04;16.50;74.60
53653;DHT22;39553;52.954;5.932;2023-04-30T08:37:30;16.50;74.30
53653;DHT22;39553;52.954;5.932;2023-04-30T08:39:56;16.60;75.40
53653;DHT22;39553;52.954;5.932;2023-04-30T08:42:25;16.60;74.20
53653;DHT22;39553;52.954;5.932;2023-04-30T08:44:54;16.50;74.00
53653;DHT22;39553;52.954;5.932;2023-04-30T08:47:20;16.30;73.70
53653;DHT22;39553;52.954;5.932;2023-04-30T08:49:46;16.20;74.90
53653;DHT22;39553;52.954;5.932;2023-04-30T08:52:13;16.10;74.00
53653;DHT22;39553;52.954;5.932;2023-04-30T08:54:39;16.00;73.80
53653;DHT22;39553;52.954;5.932;2023-04-30T08:57:05;15.90;73.30
53653;DHT22;39553;52.954;5.932;2023-04-30T08:59:34;16.00;74.20
53653;DHT22;39553;52.954;5.932;2023-04-30T09:02:01;16.00;73.70
53653;DHT22;39553;52.954;5.932;2023-04-30T09:04:27;16.00;73.30
53653;DHT22;39553;52.954;5.932;2023-04-30T09:06:53;15.90;73.60
53653;DHT22;39553;52.954;5.932;2023-04-30T09:09:37;15.80;74.40
53653;DHT22;39553;52.954;5.932;2023-04-30T09:12:11;15.70;73.40
53653;DHT22;39553;52.954;5.932;2023-04-30T09:14:40;15.50;73.80
53653;DHT22;39553;52.954;5.932;2023-04-30T09:17:21;15.30;75.00
53653;DHT22;39553;52.954;5.932;2023-04-30T09:19:51;14.90;74.60
53653;DHT22;39553;52.954;5.932;2023-04-30T09:22:23;14.80;76.10
53653;DHT22;39553;52.954;5.932;2023-04-30T09:24:50;14.60;76.40
53653;DHT22;39553;52.954;5.932;2023-04-30T09:27:17;14.60;77.40
53653;DHT22;39553;52.954;5.932;2023-04-30T09:29:44;14.50;77.60
53653;DHT22;39553;52.954;5.932;2023-04-30T09:32:11;14.50;77.70
53653;DHT22;39553;52.954;5.932;2023-04-30T09:34:36;14.90;78.70
53653;DHT22;39553;52.954;5.932;2023-04-30T09:37:02;15.80;78.10
53653;DHT22;39553;52.954;5.932;2023-04-30T09:39:29;16.70;77.10
53653;DHT22;39553;52.954;5.932;2023-04-30T09:42:08;17.30;75.30
53653;DHT22;39553;52.954;5.932;2023-04-30T09:44:38;17.90;73.00
53653;DHT22;39553;52.954;5.932;2023-04-30T09:47:10;17.90;72.50
53653;DHT22;39553;52.954;5.932;2023-04-30T09:49:40;17.80;71.80
53653;DHT22;39553;52.954;5.932;2023-04-30T09:52:07;18.00;72.70
53653;DHT22;39553;52.954;5.932;2023-04-30T09:54:34;17.80;71.50
53653;DHT22;39553;52.954;5.932;2023-04-30T09:57:01;17.50;71.80
53653;DHT22;39553;52.954;5.932;2023-04-30T09:59:33;17.50;72.20
53653;DHT22;39553;52.954;5.932;2023-04-30T10:02:01;17.70;71.80
53653;DHT22;39553;52.954;5.932;2023-04-30T10:04:49;17.40;71.40
53653;DHT22;39553;52.954;5.932;2023-04-30T10:07:24;17.30;72.00
53653;DHT22;39553;52.954;5.932;2023-04-30T10:10:07;17.10;73.10
53653;DHT22;39553;52.954;5.932;2023-04-30T10:15:19;16.30;73.50
53653;DHT22;39553;52.954;5.932;2023-04-30T10:18:01;16.10;74.40
53653;DHT22;39553;52.954;5.932;2023-04-30T10:20:29;15.80;74.80
53653;DHT22;39553;52.954;5.932;2023-04-30T10:23:00;15.70;75.70
53653;DHT22;39553;52.954;5.932;2023-04-30T10:25:27;15.90;76.80
53653;DHT22;39553;52.954;5.932;2023-04-30T10:27:53;16.60;76.90
53653;DHT22;39553;52.954;5.932;2023-04-30T10:30:21;17.30;76.40
53653;DHT22;39553;52.954;5.932;2023-04-30T10:33:25;17.90;74.60
53653;DHT22;39553;52.954;5.932;2023-04-30T10:36:00;18.40;71.70
53653;DHT22;39553;52.954;5.932;2023-04-30T10:38:29;18.90;72.70
53653;DHT22;39553;52.954;5.932;2023-04-30T10:40:58;19.20;72.30
53653;DHT22;39553;52.954;5.932;2023-04-30T10:43:25;19.10;69.40
53653;DHT22;39553;52.954;5.932;2023-04-30T10:45:51;19.00;71.70
53653;DHT22;39553;52.954;5.932;2023-04-30T10:48:17;18.80;70.60
53653;DHT22;39553;52.954;5.932;2023-04-30T10:50:56;18.70;71.40
53653;DHT22;39553;52.954;5.932;2023-04-30T10:53:22;19.00;70.90
53653;DHT22;39553;52.954;5.932;2023-04-30T10:56:00;18.70;71.00
53653;DHT22;39553;52.954;5.932;2023-04-30T10:58:35;18.90;71.50
53653;DHT22;39553;52.954;5.932;2023-04-30T11:01:12;18.40;69.30
53653;DHT22;39553;52.954;5.932;2023-04-30T11:09:39;17.60;70.40
53653;DHT22;39553;52.954;5.932;2023-04-30T11:12:14;17.50;69.70
53653;DHT22;39553;52.954;5.932;2023-04-30T11:14:41;17.40;70.40
53653;DHT22;39553;52.954;5.932;2023-04-30T11:17:23;17.70;71.30
53653;DHT22;39553;52.954;5.932;2023-04-30T11:19:51;18.50;70.50
53653;DHT22;39553;52.954;5.932;2023-04-30T11:22:21;18.70;70.00
53653;DHT22;39553;52.954;5.932;2023-04-30T11:27:25;18.00;68.90
53653;DHT22;39553;52.954;5.932;2023-04-30T11:29:52;17.10;69.30
53653;DHT22;39553;52.954;5.932;2023-04-30T11:32:19;16.80;71.10
53653;DHT22;39553;52.954;5.932;2023-04-30T11:34:46;16.80;71.90
53653;DHT22;39553;52.954;5.932;2023-04-30T11:37:18;16.50;72.10
53653;DHT22;39553;52.954;5.932;2023-04-30T11:39:44;16.70;72.20
53653;DHT22;39553;52.954;5.932;2023-04-30T11:42:16;17.30;72.20
53653;DHT22;39553;52.954;5.932;2023-04-30T11:44:42;17.20;71.80
53653;DHT22;39553;52.954;5.932;2023-04-30T11:47:08;17.00;71.60
53653;DHT22;39553;52.954;5.932;2023-04-30T11:49:34;16.70;71.80
53653;DHT22;39553;52.954;5.932;2023-04-30T11:52:01;16.60;72.30
53653;DHT22;39553;52.954;5.932;2023-04-30T11:54:35;16.60;73.50
53653;DHT22;39553;52.954;5.932;2023-04-30T11:57:02;16.60;73.10
53653;DHT22;39553;52.954;5.932;2023-04-30T11:59:39;16.30;73.00
53653;DHT22;39553;52.954;5.932;2023-04-30T12:02:06;16.10;72.80
53653;DHT22;39553;52.954;5.932;2023-04-30T12:04:32;15.90;73.60
53653;DHT22;39553;52.954;5.932;2023-04-30T12:07:01;15.80;74.30
53653;DHT22;39553;52.954;5.932;2023-04-30T12:09:28;15.90;74.70
53653;DHT22;39553;52.954;5.932;2023-04-30T12:11:54;15.90;74.30
53653;DHT22;39553;52.954;5.932;2023-04-30T12:14:23;16.00;74.80
53653;DHT22;39553;52.954;5.932;2023-04-30T12:16:51;16.10;75.30
53653;DHT22;39553;52.954;5.932;2023-04-30T12:19:18;16.20;74.80
53653;DHT22;39553;52.954;5.932;2023-04-30T12:21:45;16.20;74.80
53653;DHT22;39553;52.954;5.932;2023-04-30T12:24:16;16.30;73.90
53653;DHT22;39553;52.954;5.932;2023-04-30T12:26:43;16.30;74.40
53653;DHT22;39553;52.954;5.932;2023-04-30T12:29:13;16.20;74.50
53653;DHT22;39553;52.954;5.932;2023-04-30T12:31:39;16.40;73.50
53653;DHT22;39553;52.954;5.932;2023-04-30T12:34:13;16.40;73.80
53653;DHT22;39553;52.954;5.932;2023-04-30T12:36:40;16.50;74.30
53653;DHT22;39553;52.954;5.932;2023-04-30T12:39:11;16.50;73.30
53653;DHT22;39553;52.954;5.932;2023-04-30T12:41:42;16.30;73.40
53653;DHT22;39553;52.954;5.932;2023-04-30T12:46:44;16.50;74.20
53653;DHT22;39553;52.954;5.932;2023-04-30T12:49:11;16.70;73.80
53653;DHT22;39553;52.954;5.932;2023-04-30T12:51:38;16.90;73.70
53653;DHT22;39553;52.954;5.932;2023-04-30T12:54:06;17.00;73.80
53653;DHT22;39553;52.954;5.932;2023-04-30T12:56:34;17.30;74.00
53653;DHT22;39553;52.954;5.932;2023-04-30T12:59:00;17.60;73.00
53653;DHT22;39553;52.954;5.932;2023-04-30T13:01:26;17.70;72.30
53653;DHT22;39553;52.954;5.932;2023-04-30T13:03:52;18.10;72.10
53653;DHT22;39553;52.954;5.932;2023-04-30T13:06:20;18.30;70.60
53653;DHT22;39553;52.954;5.932;2023-04-30T13:08:47;18.40;70.20
53653;DHT22;39553;52.954;5.932;2023-04-30T13:11:16;18.40;70.20
53653;DHT22;39553;52.954;5.932;2023-04-30T13:13:43;18.30;69.80
53653;DHT22;39553;52.954;5.932;2023-04-30T13:16:09;18.00;70.40
53653;DHT22;39553;52.954;5.932;2023-04-30T13:18:35;18.10;70.10
53653;DHT22;39553;52.954;5.932;2023-04-30T13:21:01;18.30;69.70
53653;DHT22;39553;52.954;5.932;2023-04-30T13:23:27;18.40;69.80
53653;DHT22;39553;52.954;5.932;2023-04-30T13:25:53;18.20;69.70
53653;DHT22;39553;52.954;5.932;2023-04-30T13:28:19;18.20;70.60
53653;DHT22;39553;52.954;5.932;2023-04-30T13:30:45;18.40;69.40
53653;DHT22;39553;52.954;5.932;2023-04-30T13:33:10;18.40;68.60
53653;DHT22;39553;52.954;5.932;2023-04-30T13:35:36;18.20;68.80
53653;DHT22;39553;52.954;5.932;2023-04-30T13:38:02;18.00;69.60
53653;DHT22;39553;52.954;5.932;2023-04-30T13:40:28;17.80;70.40
53653;DHT22;39553;52.954;5.932;2023-04-30T13:42:54;17.60;70.30
53653;DHT22;39553;52.954;5.932;2023-04-30T13:45:19;17.30;71.50
53653;DHT22;39553;52.954;5.932;2023-04-30T13:47:46;17.10;71.60
53653;DHT22;39553;52.954;5.932;2023-04-30T13:50:12;17.00;72.00
53653;DHT22;39553;52.954;5.932;2023-04-30T13:52:38;16.80;72.40
53653;DHT22;39553;52.954;5.932;2023-04-30T13:55:04;16.70;72.90
53653;DHT22;39553;52.954;5.932;2023-04-30T13:57:30;16.70;74.00
53653;DHT22;39553;52.954;5.932;2023-04-30T13:59:58;16.70;74.40
53653;DHT22;39553;52.954;5.932;2023-04-30T14:02:25;16.80;74.00
53653;DHT22;39553;52.954;5.932;2023-04-30T14:04:51;16.80;73.30
53653;DHT22;39553;52.954;5.932;2023-04-30T14:07:17;17.00;73.80
53653;DHT22;39553;52.954;5.932;2023-04-30T14:09:43;17.30;73.50
53653;DHT22;39553;52.954;5.932;2023-04-30T14:12:09;17.20;72.70
53653;DHT22;39553;52.954;5.932;2023-04-30T14:14:35;17.20;73.30
53653;DHT22;39553;52.954;5.932;2023-04-30T14:17:01;17.20;73.50
53653;DHT22;39553;52.954;5.932;2023-04-30T14:19:27;17.10;74.20
53653;DHT22;39553;52.954;5.932;2023-04-30T14:21:53;17.00;74.40
53653;DHT22;39553;52.954;5.932;2023-04-30T14:24:19;17.00;74.10
53653;DHT22;39553;52.954;5.932;2023-04-30T14:26:45;16.90;74.00
53653;DHT22;39553;52.954;5.932;2023-04-30T14:29:11;16.80;73.70
53653;DHT22;39553;52.954;5.932;2023-04-30T14:31:37;16.70;73.60
53653;DHT22;39553;52.954;5.932;2023-04-30T14:34:02;16.60;73.20
53653;DHT22;39553;52.954;5.932;2023-04-30T14:36:28;16.60;73.80
53653;DHT22;39553;52.954;5.932;2023-04-30T14:38:54;16.50;73.70
53653;DHT22;39553;52.954;5.932;2023-04-30T14:41:20;16.40;73.40
53653;DHT22;39553;52.954;5.932;2023-04-30T14:43:46;16.30;73.60
53653;DHT22;39553;52.954;5.932;2023-04-30T14:46:12;16.30;74.00
53653;DHT22;39553;52.954;5.932;2023-04-30T14:48:38;16.60;73.90
53653;DHT22;39553;52.954;5.932;2023-04-30T14:51:04;17.40;73.40
53653;DHT22;39553;52.954;5.932;2023-04-30T14:53:30;18.00;72.10
53653;DHT22;39553;52.954;5.932;2023-04-30T14:55:56;18.40;70.20
53653;DHT22;39553;52.954;5.932;2023-04-30T14:58:22;18.50;69.40
53653;DHT22;39553;52.954;5.932;2023-04-30T15:00:48;18.80;69.20
53653;DHT22;39553;52.954;5.932;2023-04-30T15:03:14;19.10;68.50
53653;DHT22;39553;52.954;5.932;2023-04-30T15:05:41;19.40;67.30
53653;DHT22;39553;52.954;5.932;2023-04-30T15:08:07;19.70;66.00
53653;DHT22;39553;52.954;5.932;2023-04-30T15:10:33;19.80;65.00
53653;DHT22;39553;52.954;5.932;2023-04-30T15:12:58;19.90;64.10
53653;DHT22;39553;52.954;5.932;2023-04-30T15:15:24;19.80;63.40
53653;DHT22;39553;52.954;5.932;2023-04-30T15:17:59;19.60;63.40
53653;DHT22;39553;52.954;5.932;2023-04-30T15:20:28;19.40;63.80
53653;DHT22;39553;52.954;5.932;2023-04-30T15:22:53;19.00;64.80
53653;DHT22;39553;52.954;5.932;2023-04-30T15:25:21;18.80;65.30
53653;DHT22;39553;52.954;5.932;2023-04-30T15:27:49;18.40;65.70
53653;DHT22;39553;52.954;5.932;2023-04-30T15:30:16;18.00;66.90
53653;DHT22;39553;52.954;5.932;2023-04-30T15:32:42;17.60;66.70
53653;DHT22;39553;52.954;5.932;2023-04-30T15:35:08;17.50;68.00
53653;DHT22;39553;52.954;5.932;2023-04-30T15:37:35;17.60;68.20
53653;DHT22;39553;52.954;5.932;2023-04-30T15:40:02;18.20;68.00
53653;DHT22;39553;52.954;5.932;2023-04-30T15:42:29;18.50;65.60
53653;DHT22;39553;52.954;5.932;2023-04-30T15:44:56;18.50;65.20
53653;DHT22;39553;52.954;5.932;2023-04-30T15:47:23;18.80;65.00
53653;DHT22;39553;52.954;5.932;2023-04-30T15:49:48;19.40;64.00
53653;DHT22;39553;52.954;5.932;2023-04-30T15:52:14;20.00;62.50
53653;DHT22;39553;52.954;5.932;2023-04-30T15:54:40;20.40;61.00
53653;DHT22;39553;52.954;5.932;2023-04-30T15:57:06;20.90;59.90
53653;DHT22;39553;52.954;5.932;2023-04-30T15:59:32;21.50;58.60
53653;DHT22;39553;52.954;5.932;2023-04-30T16:01:58;21.70;56.80
53653;DHT22;39553;52.954;5.932;2023-04-30T16:04:24;21.70;56.40
53653;DHT22;39553;52.954;5.932;2023-04-30T16:06:50;21.30;56.40